Time;durP1;ratioP1;P1;durP2;ratioP2;P2;SDS_P1;SDS_P2;PMS_P1;PMS_P2;Temp;Humidity;BMP_temperature;BMP_pressure;BME280_temperature;BME280_humidity;BME280_pressure;Samples;Min_cycle;Max_cycle;Signal;HPM_P1;HPM_P2
2021/07/10 00:01:10;;;;;;;6.20;5.60;;;;;;;19.12;75.40;95271.44;5107444;28;20417;-66
2021/07/10 00:03:39;;;;;;;7.35;6.10;;;;;;;19.23;74.63;95270.34;5107652;28;20035;-66
2021/07/10 00:06:06;;;;;;;12.75;5.70;;;;;;;19.26;74.09;95261.84;5107049;28;20048;-66
2021/07/10 00:08:33;;;;;;;8.98;5.72;;;;;;;19.39;74.03;95284.22;5107224;28;20051;-66
2021/07/10 00:11:01;;;;;;;11.35;6.15;;;;;;;19.32;74.53;95280.31;5106911;28;20047;-67
2021/07/10 00:13:28;;;;;;;9.50;5.78;;;;;;;19.19;74.60;95279.84;5107296;28;21010;-66
2021/07/10 00:15:55;;;;;;;9.00;5.68;;;;;;;19.34;74.13;95283.44;5105973;28;20047;-66
2021/07/10 00:18:22;;;;;;;9.45;6.45;;;;;;;19.45;73.76;95279.69;5107250;28;20055;-67
2021/07/10 00:20:49;;;;;;;8.35;5.72;;;;;;;19.47;73.49;95277.56;5106498;28;20059;-67
2021/07/10 00:23:17;;;;;;;11.00;5.88;;;;;;;19.45;73.16;95263.84;5107031;28;20035;-66
2021/07/10 00:25:43;;;;;;;11.48;7.40;;;;;;;19.37;74.03;95272.34;5106792;28;20035;-66
2021/07/10 00:28:10;;;;;;;9.90;5.75;;;;;;;19.34;73.83;95267.59;5106713;28;20063;-66
2021/07/10 00:30:37;;;;;;;9.65;5.65;;;;;;;19.45;74.06;95284.97;5106698;27;20040;-66
2021/07/10 00:33:04;;;;;;;14.68;6.10;;;;;;;19.44;73.54;95278.09;5106801;28;20058;-66
2021/07/10 00:35:31;;;;;;;10.80;5.72;;;;;;;19.29;73.85;95266.59;5106281;28;20118;-66
2021/07/10 00:37:58;;;;;;;10.13;5.80;;;;;;;19.15;74.63;95260.34;5106622;28;20051;-66
2021/07/10 00:40:25;;;;;;;7.65;5.78;;;;;;;19.04;74.84;95256.19;5106308;28;20043;-66
2021/07/10 00:42:52;;;;;;;11.75;5.25;;;;;;;19.09;75.21;95261.47;5103215;28;20048;-66
2021/07/10 00:45:19;;;;;;;8.43;6.00;;;;;;;18.98;75.74;95249.38;5105424;28;20048;-67
2021/07/10 00:47:46;;;;;;;12.88;6.10;;;;;;;19.01;75.53;95248.81;5105242;28;20437;-66
2021/07/10 00:50:19;;;;;;;7.90;5.78;;;;;;;18.86;76.46;95257.63;5105785;27;20044;-66
2021/07/10 00:52:46;;;;;;;6.67;5.63;;;;;;;18.82;76.50;95260.03;5106706;27;20043;-66
2021/07/10 00:55:13;;;;;;;12.63;7.00;;;;;;;18.79;76.63;95257.88;5105407;28;20051;-66
2021/07/10 00:57:42;;;;;;;8.38;5.35;;;;;;;18.96;76.07;95251.50;5106402;27;20047;-66
2021/07/10 01:00:18;;;;;;;5.80;5.20;;;;;;;18.97;75.76;95237.25;5106313;28;20044;-66
2021/07/10 01:02:48;;;;;;;12.63;5.97;;;;;;;18.84;76.35;95239.41;5105476;28;20432;-66
2021/07/10 01:05:31;;;;;;;7.75;6.40;;;;;;;18.69;76.80;95242.09;5106281;27;20100;-66
2021/07/10 01:07:58;;;;;;;6.65;5.93;;;;;;;18.68;76.34;95236.03;5105459;27;20032;-66
2021/07/10 01:10:25;;;;;;;8.25;5.60;;;;;;;18.53;76.37;95213.19;5106342;28;20050;-66
2021/07/10 01:12:53;;;;;;;9.88;6.30;;;;;;;18.56;76.66;95221.59;5105980;28;20123;-66
2021/07/10 01:15:24;;;;;;;10.05;6.78;;;;;;;18.49;76.76;95227.16;5106147;28;20038;-66
2021/07/10 01:17:56;;;;;;;10.30;6.47;;;;;;;18.45;76.73;95226.91;5106233;28;20043;-66
2021/07/10 01:20:25;;;;;;;8.98;6.05;;;;;;;18.37;77.59;95216.94;5087551;28;20061;-66
2021/07/10 01:22:53;;;;;;;10.20;6.00;;;;;;;18.35;77.99;95224.34;5106005;28;20036;-66
2021/07/10 01:25:22;;;;;;;7.82;5.70;;;;;;;18.34;78.12;95214.84;5104329;28;20536;-67
2021/07/10 01:27:50;;;;;;;9.93;6.50;;;;;;;18.33;77.75;95200.09;5105911;28;20039;-66
2021/07/10 01:30:20;;;;;;;10.18;6.20;;;;;;;18.46;77.38;95212.69;5104972;28;20156;-66
2021/07/10 01:32:49;;;;;;;9.00;5.78;;;;;;;18.39;78.11;95204.28;5105969;28;20043;-66
2021/07/10 01:35:17;;;;;;;9.70;6.78;;;;;;;18.25;78.24;95201.44;5105025;28;20090;-66
2021/07/10 01:37:44;;;;;;;12.68;7.30;;;;;;;17.95;78.85;95202.31;5105621;28;20109;-67
2021/07/10 01:40:14;;;;;;;7.57;6.82;;;;;;;18.05;79.48;95207.56;5087363;28;20473;-66
2021/07/10 01:42:41;;;;;;;10.55;6.82;;;;;;;18.11;78.90;95206.50;5104323;28;20123;-66
2021/07/10 01:45:09;;;;;;;9.25;6.68;;;;;;;18.11;78.79;95201.25;5104537;28;20040;-66
2021/07/10 01:47:36;;;;;;;9.27;7.00;;;;;;;18.15;78.79;95191.72;5103730;28;20039;-66
2021/07/10 01:50:05;;;;;;;12.88;6.38;;;;;;;18.13;78.84;95193.84;5105671;28;20048;-66
2021/07/10 01:52:33;;;;;;;9.30;6.72;;;;;;;17.92;79.84;95192.34;5105338;28;20494;-66
2021/07/10 01:55:01;;;;;;;7.32;6.53;;;;;;;17.90;79.69;95184.69;5107975;28;20053;-66
2021/07/10 01:57:27;;;;;;;12.35;7.22;;;;;;;17.91;79.33;95180.19;5109688;28;20526;-67
2021/07/10 01:59:54;;;;;;;13.63;6.70;;;;;;;17.88;79.57;95170.19;5109555;28;20048;-66
2021/07/10 02:02:21;;;;;;;9.95;6.82;;;;;;;17.90;79.93;95189.19;5109647;27;20044;-66
2021/07/10 02:04:50;;;;;;;17.88;6.90;;;;;;;17.87;79.76;95179.94;5108641;28;20047;-66
2021/07/10 02:07:17;;;;;;;9.35;7.30;;;;;;;17.85;79.98;95186.53;5108587;28;20046;-66
2021/07/10 02:09:45;;;;;;;9.45;7.57;;;;;;;17.90;79.58;95183.91;5109874;27;20054;-66
2021/07/10 02:12:14;;;;;;;11.85;7.35;;;;;;;17.93;79.52;95188.63;5111243;27;20088;-66
2021/07/10 02:14:41;;;;;;;8.60;7.40;;;;;;;17.94;79.13;95190.22;5109534;28;20050;-66
2021/07/10 02:17:08;;;;;;;11.70;7.00;;;;;;;17.89;79.47;95177.84;5110091;28;20842;-66
2021/07/10 02:19:35;;;;;;;7.20;6.47;;;;;;;17.96;79.12;95188.09;5108257;28;20112;-66
2021/07/10 02:22:04;;;;;;;10.10;8.10;;;;;;;18.04;78.21;95190.19;5109216;28;20042;-66
2021/07/10 02:24:31;;;;;;;10.32;7.03;;;;;;;18.07;77.64;95192.28;5109513;28;20039;-66
2021/07/10 02:26:58;;;;;;;8.85;7.10;;;;;;;18.02;77.59;95194.13;5109218;28;20508;-68
2021/07/10 02:29:25;;;;;;;11.60;7.07;;;;;;;17.98;78.54;95196.53;5109517;28;20043;-66
2021/07/10 02:31:52;;;;;;;8.23;6.63;;;;;;;17.87;78.32;95200.25;5109432;27;20397;-66
2021/07/10 02:34:19;;;;;;;13.75;7.18;;;;;;;17.81;78.56;95190.72;5109282;27;20039;-66
2021/07/10 02:36:46;;;;;;;10.07;6.82;;;;;;;17.98;78.04;95207.06;5109244;27;20035;-66
2021/07/10 02:39:13;;;;;;;11.57;7.63;;;;;;;17.96;78.19;95194.16;5090787;28;20444;-66
2021/07/10 02:41:40;;;;;;;8.57;6.65;;;;;;;18.04;77.74;95203.38;5109120;27;20044;-66
2021/07/10 02:44:07;;;;;;;11.00;7.15;;;;;;;18.07;77.46;95204.66;5106799;28;20046;-66
2021/07/10 02:46:34;;;;;;;8.57;7.15;;;;;;;18.03;77.85;95208.91;5108836;27;20031;-66
2021/07/10 02:49:00;;;;;;;13.73;6.80;;;;;;;17.97;78.23;95202.88;5108777;28;20503;-66
2021/07/10 02:51:28;;;;;;;11.63;6.95;;;;;;;17.96;78.11;95198.63;5109107;28;20036;-66
2021/07/10 02:53:55;;;;;;;11.23;7.20;;;;;;;17.98;77.97;95201.78;5109154;28;20047;-66
2021/07/10 02:56:24;;;;;;;7.32;6.53;;;;;;;17.97;78.16;95200.22;5108686;28;20423;-67
2021/07/10 02:58:52;;;;;;;10.02;6.75;;;;;;;17.87;78.38;95185.22;5108904;27;20047;-66
2021/07/10 03:01:19;;;;;;;8.50;6.15;;;;;;;17.99;78.14;95200.75;5111006;27;20147;-66
2021/07/10 03:03:47;;;;;;;8.15;7.35;;;;;;;17.91;78.55;95191.53;5091156;28;20130;-66
2021/07/10 03:06:14;;;;;;;9.98;7.30;;;;;;;17.76;78.69;95184.44;5110167;27;20048;-67
2021/07/10 03:08:42;;;;;;;10.52;7.03;;;;;;;17.77;79.26;95186.03;5108635;27;20043;-67
2021/07/10 03:11:11;;;;;;;9.15;7.15;;;;;;;17.65;79.54;95193.41;5108395;27;20048;-67
2021/07/10 03:13:38;;;;;;;12.68;7.07;;;;;;;17.62;79.71;95193.94;5107678;27;20040;-66
2021/07/10 03:16:05;;;;;;;14.23;6.78;;;;;;;17.69;78.75;95198.94;5108328;27;20398;-66
2021/07/10 03:18:32;;;;;;;9.18;7.18;;;;;;;17.72;78.93;95188.66;5108292;28;20048;-66
2021/07/10 03:20:59;;;;;;;10.77;7.82;;;;;;;17.78;78.25;95187.56;5111410;27;20051;-66
2021/07/10 03:23:26;;;;;;;9.68;6.75;;;;;;;17.78;77.97;95186.78;5107741;28;20051;-66
2021/07/10 03:25:53;;;;;;;10.25;6.43;;;;;;;17.73;78.45;95184.94;5108234;28;20051;-66
2021/07/10 03:28:20;;;;;;;7.95;7.15;;;;;;;17.70;78.00;95185.50;5108107;27;20043;-66
2021/07/10 03:30:51;;;;;;;15.50;6.85;;;;;;;17.51;79.52;95184.47;5108032;27;20055;-66
2021/07/10 03:33:22;;;;;;;16.30;7.28;;;;;;;17.55;79.71;95188.16;5108268;27;20052;-66
2021/07/10 03:35:49;;;;;;;11.95;7.82;;;;;;;17.43;80.16;95175.28;5107023;27;20414;-66
2021/07/10 03:38:16;;;;;;;13.80;7.20;;;;;;;17.47;80.98;95192.13;5107928;28;20051;-66
2021/07/10 03:40:43;;;;;;;13.30;6.82;;;;;;;17.49;80.69;95183.97;5107629;28;20035;-66
2021/07/10 03:43:10;;;;;;;14.38;7.25;;;;;;;17.48;80.73;95192.91;5105049;28;20040;-66
2021/07/10 03:45:37;;;;;;;11.55;7.65;;;;;;;17.44;80.83;95189.22;5107621;28;20527;-66
2021/07/10 03:48:05;;;;;;;11.38;6.80;;;;;;;17.47;80.11;95171.06;5109109;27;20039;-66
2021/07/10 03:50:32;;;;;;;11.68;6.60;;;;;;;17.22;80.01;95123.72;5107590;28;20531;-66
2021/07/10 03:52:59;;;;;;;10.75;6.68;;;;;;;17.64;79.89;95186.56;5106599;28;20497;-66
2021/07/10 03:55:30;;;;;;;15.00;6.30;;;;;;;17.77;78.84;95186.03;5106840;27;20050;-66
2021/07/10 03:57:57;;;;;;;9.38;6.13;;;;;;;17.76;78.98;95181.78;5107284;28;20047;-66
2021/07/10 04:00:24;;;;;;;7.20;6.35;;;;;;;17.78;79.69;95176.25;5107645;28;20440;-66
2021/07/10 04:02:50;;;;;;;21.73;7.63;;;;;;;17.85;79.67;95170.72;5108989;27;20036;-66
2021/07/10 04:05:18;;;;;;;8.70;6.63;;;;;;;17.89;78.52;95177.06;5107347;28;20031;-66
2021/07/10 04:07:45;;;;;;;7.35;6.38;;;;;;;17.98;79.14;95164.91;5088861;28;20062;-66
2021/07/10 04:10:13;;;;;;;7.00;5.85;;;;;;;18.06;77.65;95161.72;5107630;27;20047;-66
2021/07/10 04:12:42;;;;;;;9.48;6.40;;;;;;;18.04;78.13;95158.56;5110391;27;20047;-66
2021/07/10 04:15:10;;;;;;;9.35;5.78;;;;;;;18.22;77.28;95164.28;5107260;28;20507;-66
2021/07/10 04:17:37;;;;;;;13.93;6.47;;;;;;;18.21;76.42;95162.72;5106025;28;20048;-66
2021/07/10 04:20:05;;;;;;;7.38;6.57;;;;;;;18.28;77.17;95157.94;5088780;28;20039;-66
2021/07/10 04:22:33;;;;;;;7.65;5.70;;;;;;;18.35;76.60;95158.44;5107154;28;20126;-66
2021/07/10 04:25:03;;;;;;;12.73;5.88;;;;;;;18.39;76.63;95148.91;5106914;28;20398;-66
2021/07/10 04:27:31;;;;;;;8.23;7.22;;;;;;;18.53;76.81;95160.44;5106897;27;20524;-66
2021/07/10 04:29:58;;;;;;;12.68;7.40;;;;;;;18.60;76.76;95154.03;5107129;28;20036;-66
2021/07/10 04:32:25;;;;;;;9.85;6.47;;;;;;;18.60;76.69;95154.03;5106754;27;20111;-66
2021/07/10 04:34:53;;;;;;;7.65;6.28;;;;;;;18.66;76.53;95152.97;5106870;28;20035;-66
2021/07/10 04:37:20;;;;;;;15.43;7.45;;;;;;;18.75;75.00;95153.97;5104906;28;20039;-66
2021/07/10 04:39:47;;;;;;;10.35;5.88;;;;;;;18.77;74.96;95146.56;5105509;28;20035;-67
2021/07/10 04:42:14;;;;;;;7.18;6.47;;;;;;;18.89;74.43;95149.69;5106987;28;20031;-66
2021/07/10 04:44:42;;;;;;;11.90;6.10;;;;;;;18.95;74.32;95149.63;5104968;28;20031;-66
2021/07/10 04:47:11;;;;;;;12.50;6.32;;;;;;;19.09;74.26;95161.91;5106706;27;20040;-67
2021/07/10 04:49:38;;;;;;;9.77;5.55;;;;;;;19.05;75.38;95146.91;5106479;28;20039;-67
2021/07/10 04:52:05;;;;;;;8.15;6.07;;;;;;;19.04;75.08;95147.97;5106497;27;20463;-66
2021/07/10 04:54:32;;;;;;;17.67;8.90;;;;;;;19.06;77.20;95151.13;5109197;27;20039;-66
2021/07/10 04:56:59;;;;;;;9.85;6.75;;;;;;;19.17;77.43;95165.81;5106660;28;20039;-67
2021/07/10 04:59:26;;;;;;;17.90;6.18;;;;;;;19.15;75.53;95162.66;5104796;28;20118;-67
2021/07/10 05:01:53;;;;;;;8.05;5.85;;;;;;;19.27;74.90;95163.09;5105355;28;20043;-66
2021/07/10 05:04:20;;;;;;;14.63;7.00;;;;;;;19.23;74.60;95146.25;5107790;27;20520;-66
2021/07/10 05:06:47;;;;;;;8.40;7.03;;;;;;;19.34;75.18;95157.50;5106325;28;20051;-66
2021/07/10 05:09:14;;;;;;;10.18;6.43;;;;;;;19.44;75.15;95164.53;5088123;28;20040;-66
2021/07/10 05:11:41;;;;;;;9.35;6.82;;;;;;;19.36;74.35;95139.53;5106196;28;20036;-66
2021/07/10 05:14:08;;;;;;;10.45;6.80;;;;;;;19.53;74.69;95165.50;5106151;28;20424;-66
2021/07/10 05:16:35;;;;;;;8.38;6.57;;;;;;;19.53;75.08;95170.00;5105885;28;20046;-66
2021/07/10 05:19:05;;;;;;;11.75;7.10;;;;;;;19.66;75.61;95164.84;5106156;28;20042;-66
2021/07/10 05:21:33;;;;;;;12.05;8.10;;;;;;;19.82;75.95;95162.06;5104932;28;20063;-66
2021/07/10 05:24:01;;;;;;;10.70;6.43;;;;;;;19.92;73.46;95172.53;5106521;28;20039;-66
2021/07/10 05:26:28;;;;;;;14.20;6.70;;;;;;;19.94;73.31;95159.81;5106494;28;20047;-67
2021/07/10 05:28:54;;;;;;;11.77;6.40;;;;;;;20.12;72.76;95176.03;5105727;28;20123;-66
2021/07/10 05:31:21;;;;;;;12.20;7.35;;;;;;;20.13;72.71;95180.22;5105927;28;20448;-67
2021/07/10 05:33:49;;;;;;;13.35;5.60;;;;;;;20.18;72.16;95157.16;5106001;28;20462;-66
2021/07/10 05:36:16;;;;;;;14.95;7.15;;;;;;;20.46;71.95;95186.44;5105933;28;20039;-67
2021/07/10 05:38:42;;;;;;;10.15;6.85;;;;;;;20.65;70.36;95177.75;5105812;28;20047;-66
2021/07/10 05:41:11;;;;;;;10.30;6.47;;;;;;;20.76;69.30;95174.69;5104114;28;20440;-67
2021/07/10 05:43:37;;;;;;;12.27;6.50;;;;;;;20.95;68.60;95181.81;5103135;28;20039;-67
2021/07/10 05:46:04;;;;;;;10.85;5.78;;;;;;;21.05;67.13;95173.72;5105970;28;20039;-67
2021/07/10 05:48:33;;;;;;;10.90;5.50;;;;;;;21.14;67.07;95172.00;5105423;28;20040;-67
2021/07/10 05:50:59;;;;;;;8.30;5.28;;;;;;;21.24;66.33;95178.19;5105819;28;20039;-66
2021/07/10 05:53:26;;;;;;;10.02;6.13;;;;;;;21.36;65.87;95170.59;5105764;28;20046;-67
2021/07/10 05:55:53;;;;;;;6.43;4.82;;;;;;;21.37;64.05;95177.44;5105198;28;20413;-66
2021/07/10 05:58:20;;;;;;;12.50;5.80;;;;;;;21.58;64.69;95168.09;5105503;28;20040;-67
2021/07/10 06:00:46;;;;;;;8.32;5.28;;;;;;;21.71;63.52;95165.75;5106015;28;20048;-67
2021/07/10 06:03:13;;;;;;;11.85;5.55;;;;;;;21.83;64.36;95157.34;5105579;28;20051;-67
2021/07/10 06:05:40;;;;;;;7.18;5.40;;;;;;;22.02;61.71;95175.78;5105430;28;20036;-67
2021/07/10 06:08:07;;;;;;;11.75;5.45;;;;;;;22.09;63.10;95181.47;5105537;28;20047;-67
2021/07/10 06:10:34;;;;;;;9.65;5.15;;;;;;;22.23;60.71;95171.66;5105383;28;23160;-67
2021/07/10 06:13:00;;;;;;;10.88;5.35;;;;;;;22.38;61.00;95172.44;5105586;28;20048;-67
2021/07/10 06:15:27;;;;;;;6.28;4.60;;;;;;;22.56;61.58;95171.53;5104175;28;20397;-67
2021/07/10 06:17:54;;;;;;;5.22;4.50;;;;;;;22.68;61.01;95174.44;5105635;28;20043;-66
2021/07/10 06:20:22;;;;;;;5.75;5.00;;;;;;;22.77;59.78;95173.75;5105704;28;20047;-66
2021/07/10 06:22:51;;;;;;;9.95;4.70;;;;;;;22.86;60.44;95171.94;5086679;28;20047;-66
2021/07/10 06:25:19;;;;;;;9.75;4.88;;;;;;;22.86;58.00;95166.63;5104429;28;20105;-67
2021/07/10 06:27:47;;;;;;;7.45;4.38;;;;;;;22.94;56.58;95178.41;5104989;28;20043;-67
2021/07/10 06:30:15;;;;;;;5.80;4.07;;;;;;;23.02;57.17;95175.81;5104125;28;20044;-67
2021/07/10 06:32:43;;;;;;;10.73;4.85;;;;;;;23.13;55.43;95170.31;5105421;28;20057;-66
2021/07/10 06:35:10;;;;;;;6.30;4.45;;;;;;;23.31;55.39;95177.28;5104734;28;20039;-67
2021/07/10 06:37:37;;;;;;;7.30;4.60;;;;;;;23.43;56.72;95180.19;5086383;28;20032;-66
2021/07/10 06:40:06;;;;;;;7.20;4.15;;;;;;;23.58;53.49;95175.56;5105449;28;20048;-66
2021/07/10 06:42:33;;;;;;;8.27;4.00;;;;;;;23.66;55.01;95177.50;5109627;27;20040;-67
2021/07/10 06:45:00;;;;;;;8.73;4.10;;;;;;;23.71;54.01;95181.91;5107617;27;20031;-66
2021/07/10 06:47:27;;;;;;;11.43;4.68;;;;;;;23.77;54.25;95178.81;5107689;28;20125;-67
2021/07/10 06:49:54;;;;;;;8.52;4.10;;;;;;;23.89;53.26;95182.78;5108621;28;20425;-67
2021/07/10 06:52:25;;;;;;;8.75;4.40;;;;;;;23.77;52.42;95172.69;5109045;28;20028;-66
2021/07/10 06:54:52;;;;;;;12.30;4.32;;;;;;;23.85;55.26;95178.06;5110274;27;20040;-67
2021/07/10 06:57:19;;;;;;;6.95;4.40;;;;;;;24.08;53.24;95178.00;5108670;28;20040;-67
2021/07/10 06:59:46;;;;;;;12.05;4.82;;;;;;;24.23;52.64;95174.91;5108829;28;20039;-67
2021/07/10 07:02:13;;;;;;;5.88;4.22;;;;;;;24.36;51.15;95183.88;5109278;28;20051;-67
2021/07/10 07:04:40;;;;;;;6.53;4.60;;;;;;;24.36;51.11;95172.44;5089101;28;20051;-66
2021/07/10 07:07:07;;;;;;;8.07;4.63;;;;;;;24.39;49.25;95171.81;5110500;27;20047;-67
2021/07/10 07:09:34;;;;;;;8.30;4.10;;;;;;;24.54;51.84;95174.09;5108823;28;20055;-67
2021/07/10 07:12:01;;;;;;;13.82;3.60;;;;;;;24.66;51.25;95180.66;5108259;28;20493;-67
2021/07/10 07:14:28;;;;;;;8.65;3.80;;;;;;;24.82;51.65;95179.09;5108181;28;20100;-67
2021/07/10 07:16:58;;;;;;;10.98;4.65;;;;;;;24.86;51.00;95185.38;5108458;27;20040;-67
2021/07/10 07:19:30;;;;;;;7.65;4.63;;;;;;;24.91;52.94;95171.91;5107262;28;20074;-66
2021/07/10 07:21:57;;;;;;;7.80;4.47;;;;;;;25.06;48.57;95167.19;5107339;28;20498;-67
2021/07/10 07:24:24;;;;;;;22.42;5.47;;;;;;;25.22;48.85;95186.94;5108123;27;20123;-66
2021/07/10 07:26:51;;;;;;;6.10;4.53;;;;;;;25.41;52.33;95183.16;5107915;28;20428;-67
2021/07/10 07:29:18;;;;;;;10.25;3.90;;;;;;;25.43;48.35;95175.66;5089534;28;20544;-67
2021/07/10 07:31:45;;;;;;;6.50;5.03;;;;;;;25.62;47.37;95178.72;5107514;28;20489;-67
2021/07/10 07:34:12;;;;;;;9.43;4.03;;;;;;;25.65;46.73;95183.41;5107211;28;20084;-67
2021/07/10 07:36:39;;;;;;;7.75;4.53;;;;;;;25.70;48.51;95169.91;5108224;27;20039;-67
2021/07/10 07:39:07;;;;;;;7.15;3.90;;;;;;;25.95;47.57;95180.84;5107583;28;20052;-67
2021/07/10 07:41:35;;;;;;;8.45;3.92;;;;;;;26.00;46.22;95178.00;5107654;27;20055;-67
2021/07/10 07:44:03;;;;;;;12.07;3.72;;;;;;;26.22;45.80;95173.50;5105040;28;20039;-67
2021/07/10 07:46:30;;;;;;;8.20;3.38;;;;;;;26.33;47.37;95158.69;5106838;28;20531;-67
2021/07/10 07:48:57;;;;;;;6.00;4.22;;;;;;;26.37;47.04;95162.25;5088995;28;20047;-67
2021/07/10 07:51:24;;;;;;;4.38;3.50;;;;;;;26.67;45.88;95159.59;5107311;28;20040;-67
2021/07/10 07:53:51;;;;;;;5.80;3.60;;;;;;;26.91;44.20;95160.81;5106602;27;20138;-67
2021/07/10 07:56:18;;;;;;;5.13;3.40;;;;;;;27.10;43.73;95166.47;5106896;28;20477;-67
2021/07/10 07:58:45;;;;;;;8.63;3.88;;;;;;;27.10;44.27;95163.81;5106838;27;20047;-67
2021/07/10 08:01:12;;;;;;;5.40;3.63;;;;;;;27.25;44.44;95159.72;5106952;28;20044;-67
2021/07/10 08:03:39;;;;;;;6.53;4.25;;;;;;;27.20;44.47;95152.69;5106225;27;20048;-67
2021/07/10 08:06:06;;;;;;;10.80;3.78;;;;;;;27.33;43.89;95160.78;5105766;27;20517;-67
2021/07/10 08:08:36;;;;;;;6.53;3.53;;;;;;;27.48;43.53;95157.50;5107080;27;20451;-68
2021/07/10 08:11:05;;;;;;;9.13;3.53;;;;;;;27.56;43.52;95159.28;5107401;27;20139;-67
2021/07/10 08:13:33;;;;;;;6.80;4.43;;;;;;;27.49;44.28;95148.34;5106435;27;20035;-67
2021/07/10 08:16:01;;;;;;;10.13;3.92;;;;;;;27.70;42.88;95134.13;5108399;27;20044;-68
2021/07/10 08:18:28;;;;;;;8.05;4.18;;;;;;;27.76;42.57;95146.16;5107389;28;20097;-68
2021/07/10 08:20:55;;;;;;;7.13;3.83;;;;;;;27.83;42.33;95135.69;5102232;28;20042;-68
2021/07/10 08:23:22;;;;;;;10.27;3.75;;;;;;;28.07;42.28;95150.22;5108203;27;20043;-69
2021/07/10 08:25:49;;;;;;;7.05;3.85;;;;;;;28.36;41.68;95152.66;5111064;27;20043;-68
2021/07/10 08:28:15;;;;;;;12.15;4.22;;;;;;;28.58;42.23;95151.41;5106010;28;20417;-69
2021/07/10 08:30:42;;;;;;;7.95;3.92;;;;;;;28.75;41.49;95141.53;5106444;28;20132;-69
2021/07/10 08:33:09;;;;;;;9.43;4.68;;;;;;;28.84;43.61;95144.09;5106060;27;20047;-69
2021/07/10 08:35:36;;;;;;;9.85;3.78;;;;;;;28.79;43.45;95148.56;5105128;27;20040;-69
2021/07/10 08:38:03;;;;;;;4.93;4.43;;;;;;;28.92;40.82;95146.63;5110298;27;20043;-69
2021/07/10 08:40:30;;;;;;;7.30;3.88;;;;;;;29.11;40.52;95137.16;5106150;28;20039;-69
2021/07/10 08:42:57;;;;;;;4.75;3.50;;;;;;;29.37;39.33;95139.44;5107771;27;20043;-68
2021/07/10 08:45:30;;;;;;;6.57;4.25;;;;;;;29.47;40.15;95138.13;5103871;28;20422;-69
2021/07/10 08:47:57;;;;;;;10.50;4.25;;;;;;;29.83;40.41;95145.19;5105083;28;20057;-69
2021/07/10 08:50:24;;;;;;;10.85;3.80;;;;;;;29.96;38.88;95134.34;5106169;28;20039;-69
2021/07/10 08:52:52;;;;;;;6.10;3.90;;;;;;;30.01;39.78;95142.16;5105710;28;20417;-69
2021/07/10 08:55:19;;;;;;;8.48;3.80;;;;;;;29.85;40.00;95131.41;5107205;27;20785;-68
2021/07/10 08:57:46;;;;;;;8.40;4.13;;;;;;;29.95;39.73;95132.81;5106826;28;20501;-69
2021/07/10 09:00:38;;;;;;;11.20;3.83;;;;;;;30.04;39.75;95149.50;5106008;28;20093;-68
2021/07/10 09:03:06;;;;;;;5.82;3.70;;;;;;;30.10;39.82;95137.38;5104400;28;20043;-68
2021/07/10 09:05:34;;;;;;;5.95;3.63;;;;;;;30.06;39.56;95136.53;5105110;28;20031;-68
2021/07/10 09:08:22;;;;;;;7.20;3.83;;;;;;;30.40;39.16;95147.66;5106093;28;20046;-68
2021/07/10 09:10:55;;;;;;;3.88;3.55;;;;;;;30.13;38.01;95138.59;5106324;27;20078;-68
2021/07/10 09:13:30;;;;;;;5.35;3.63;;;;;;;30.04;38.71;95133.41;5105598;28;20040;-68
2021/07/10 09:16:04;;;;;;;10.60;3.65;;;;;;;30.12;39.61;95137.78;5105556;28;20046;-68
2021/07/10 09:19:17;;;;;;;4.22;3.60;;;;;;;30.29;38.82;95134.75;5106359;28;20035;-68
2021/07/10 09:21:48;;;;;;;5.93;4.70;;;;;;;30.17;40.04;95142.13;5093396;28;20058;-68
2021/07/10 09:24:25;;;;;;;7.93;3.90;;;;;;;29.60;39.55;95125.41;5106358;28;20123;-68
2021/07/10 09:26:55;;;;;;;7.13;3.67;;;;;;;29.87;38.15;95139.91;5106001;28;20046;-69
2021/07/10 09:29:28;;;;;;;16.77;4.65;;;;;;;30.35;40.62;95142.56;5105910;28;20046;-68
2021/07/10 09:32:03;;;;;;;7.97;4.00;;;;;;;30.88;36.37;95138.31;5105095;28;20036;-68
2021/07/10 09:34:40;;;;;;;4.70;3.13;;;;;;;30.91;35.95;95131.44;5106207;28;20043;-68
2021/07/10 09:37:13;;;;;;;15.57;3.88;;;;;;;30.91;35.44;95131.44;5104919;28;20394;-69
2021/07/10 09:39:58;;;;;;;7.35;3.53;;;;;;;30.94;35.46;95146.91;5106004;28;20028;-68
2021/07/10 09:42:38;;;;;;;5.30;3.72;;;;;;;31.14;33.73;95141.50;5105855;28;20036;-68
2021/07/10 09:45:07;;;;;;;19.13;3.92;;;;;;;31.53;33.70;95133.38;5104304;28;20044;-68
2021/07/10 09:47:35;;;;;;;8.05;2.88;;;;;;;31.62;32.60;95125.84;5105300;28;20040;-68
2021/07/10 09:50:07;;;;;;;6.80;3.45;;;;;;;31.96;34.05;95139.47;5104499;28;20445;-68
2021/07/10 09:52:36;;;;;;;6.28;3.30;;;;;;;32.42;32.86;95128.63;5105907;28;20040;-68
2021/07/10 09:55:07;;;;;;;6.93;3.90;;;;;;;32.77;32.48;95127.56;5106070;28;20038;-69
2021/07/10 09:57:37;;;;;;;5.63;2.95;;;;;;;32.46;31.10;95134.84;5106230;28;20504;-68
2021/07/10 10:00:10;;;;;;;4.18;2.75;;;;;;;32.15;32.11;95125.94;5105783;28;20048;-68
2021/07/10 10:02:54;;;;;;;5.32;3.10;;;;;;;32.33;32.47;95120.03;5104907;28;20043;-68
2021/07/10 10:05:27;;;;;;;7.05;3.50;;;;;;;32.57;30.94;95125.00;5107255;28;20509;-68
2021/07/10 10:07:56;;;;;;;9.52;3.17;;;;;;;32.62;31.77;95131.25;5105879;28;20043;-68
2021/07/10 10:10:23;;;;;;;4.38;3.08;;;;;;;32.50;30.18;95141.09;5104398;28;20497;-68
2021/07/10 10:13:05;;;;;;;14.32;3.20;;;;;;;32.19;31.91;95132.16;5104529;28;20032;-68
2021/07/10 10:15:33;;;;;;;7.70;2.97;;;;;;;32.64;31.35;95128.94;5106534;28;20114;-68
2021/07/10 10:18:00;;;;;;;7.20;2.90;;;;;;;32.80;31.18;95129.53;5109848;28;20602;-68
2021/07/10 10:20:28;;;;;;;6.07;2.58;;;;;;;32.71;29.66;95123.66;5091742;28;20046;-68
2021/07/10 10:22:55;;;;;;;6.18;2.80;;;;;;;32.56;30.10;95128.81;5108473;28;20508;-68
2021/07/10 10:25:24;;;;;;;5.18;2.58;;;;;;;32.61;31.07;95129.66;5109484;27;20041;-68
2021/07/10 10:27:52;;;;;;;7.30;4.82;;;;;;;32.78;29.81;95129.13;5109601;27;20043;-68
2021/07/10 10:30:21;;;;;;;7.80;2.70;;;;;;;32.81;31.03;95123.00;5109566;27;20057;-68
2021/07/10 10:32:49;;;;;;;9.07;3.22;;;;;;;32.81;31.67;95131.09;5108430;27;20036;-68
2021/07/10 10:35:19;;;;;;;14.65;3.90;;;;;;;32.79;30.51;95119.91;5109585;28;20050;-68
2021/07/10 10:37:50;;;;;;;7.93;2.85;;;;;;;33.16;31.23;95126.50;5109258;28;20060;-68
2021/07/10 10:40:22;;;;;;;11.25;4.30;;;;;;;33.25;29.97;95119.66;5109588;27;20053;-68
2021/07/10 10:42:55;;;;;;;5.93;2.75;;;;;;;33.24;28.87;95118.13;5109115;28;20520;-68
2021/07/10 10:45:34;;;;;;;5.10;2.40;;;;;;;33.16;28.51;95121.88;5107514;28;20036;-68
2021/07/10 10:48:02;;;;;;;7.05;2.60;;;;;;;32.94;28.98;95120.84;5108987;28;20047;-68
2021/07/10 10:50:38;;;;;;;6.53;2.47;;;;;;;32.97;27.52;95103.91;5107732;28;20039;-68
2021/07/10 10:53:08;;;;;;;7.22;3.55;;;;;;;33.11;27.60;95114.84;5107688;28;20046;-68
2021/07/10 10:55:36;;;;;;;4.18;2.83;;;;;;;32.94;27.39;95116.22;5108847;27;20031;-68
2021/07/10 10:58:26;;;;;;;15.07;2.83;;;;;;;32.71;28.15;95112.84;5108919;28;20047;-68
2021/07/10 11:01:07;;;;;;;7.50;2.63;;;;;;;33.09;28.77;95109.03;5107450;28;20071;-68
2021/07/10 11:03:41;;;;;;;17.52;2.60;;;;;;;33.33;29.05;95109.69;5089849;28;20063;-68
2021/07/10 11:06:31;;;;;;;6.90;2.67;;;;;;;33.13;27.67;95111.81;5108681;28;20047;-68
2021/07/10 11:08:58;;;;;;;11.88;5.55;;;;;;;32.52;28.59;95106.44;5108249;28;20046;-68
2021/07/10 11:11:27;;;;;;;4.13;2.55;;;;;;;32.42;28.45;95100.91;5090097;28;20039;-68
2021/07/10 11:14:07;;;;;;;7.15;2.30;;;;;;;32.75;29.04;95102.88;5107290;28;20056;-68
2021/07/10 11:16:36;;;;;;;7.38;3.00;;;;;;;32.98;28.37;95102.00;5107501;28;20440;-68
2021/07/10 11:19:08;;;;;;;6.03;2.63;;;;;;;33.34;27.01;95095.06;5107988;27;20114;-68
2021/07/10 11:21:38;;;;;;;3.80;2.10;;;;;;;33.27;26.77;95090.38;5107341;28;20043;-68
2021/07/10 11:24:20;;;;;;;6.63;2.83;;;;;;;33.70;29.21;95096.19;5108599;27;20124;-68
2021/07/10 11:26:47;;;;;;;9.88;2.72;;;;;;;33.83;27.83;95093.19;5107763;28;20115;-68
2021/07/10 11:29:19;;;;;;;13.93;3.55;;;;;;;32.73;28.87;95086.31;5108375;28;20043;-68
2021/07/10 11:31:47;;;;;;;5.15;3.75;;;;;;;33.08;29.30;95087.81;5107052;27;20054;-68
2021/07/10 11:34:18;;;;;;;3.65;2.40;;;;;;;33.02;28.74;95068.50;5106011;28;20039;-68
2021/07/10 11:36:52;;;;;;;5.45;2.63;;;;;;;33.33;28.35;95083.50;5107631;27;20036;-68